createdAt,value
2022-12-23T00:01:20.720Z,3.90
2022-12-23T00:06:28.222Z,4.00
2022-12-23T00:11:35.383Z,3.90
2022-12-23T00:16:42.162Z,3.80
2022-12-23T00:21:49.294Z,3.70
2022-12-23T00:26:56.382Z,3.70
2022-12-23T00:32:03.292Z,3.90
2022-12-23T00:37:10.736Z,4.00
2022-12-23T00:42:34.816Z,3.90
2022-12-23T00:47:59.085Z,4.20
2022-12-23T00:53:06.651Z,4.20
2022-12-23T00:58:13.661Z,4.20
2022-12-23T01:03:38.047Z,4.10
2022-12-23T01:08:45.658Z,4.20
2022-12-23T01:13:52.588Z,4.20
2022-12-23T01:19:00.146Z,4.20
2022-12-23T01:24:07.756Z,4.10
2022-12-23T01:29:14.909Z,4.10
2022-12-23T01:34:22.117Z,4.10
2022-12-23T01:39:29.314Z,3.80
2022-12-23T01:45:05.960Z,3.80
2022-12-23T01:50:26.197Z,3.80
2022-12-23T01:55:37.575Z,3.80
2022-12-23T02:01:02.487Z,3.70
2022-12-23T02:06:35.890Z,3.80
2022-12-23T02:12:15.552Z,3.80
2022-12-23T02:17:35.636Z,3.90
2022-12-23T02:22:49.748Z,4.00
2022-12-23T02:28:24.951Z,3.90
2022-12-23T02:33:44.886Z,3.90
2022-12-23T02:39:10.917Z,4.10
2022-12-23T02:44:33.760Z,4.20
2022-12-23T02:49:44.472Z,4.10
2022-12-23T02:54:59.084Z,3.90
2022-12-23T03:00:08.790Z,3.90
2022-12-23T03:05:41.898Z,3.70
2022-12-23T03:11:10.179Z,3.80
2022-12-23T03:16:46.414Z,3.90
2022-12-23T03:22:04.417Z,4.00
2022-12-23T03:27:21.756Z,4.20
2022-12-23T03:32:33.360Z,4.20
2022-12-23T03:37:44.931Z,4.10
2022-12-23T03:42:56.344Z,4.10
2022-12-23T03:48:13.338Z,4.20
2022-12-23T03:53:24.610Z,4.00
2022-12-23T03:58:38.581Z,4.10
2022-12-23T04:04:01.814Z,4.10
2022-12-23T04:09:13.443Z,4.10
2022-12-23T04:14:22.696Z,4.20
2022-12-23T04:19:29.353Z,3.90
2022-12-23T04:24:36.073Z,3.90
2022-12-23T04:29:43.513Z,3.90
2022-12-23T04:34:50.177Z,3.90
2022-12-23T04:39:56.886Z,3.90
2022-12-23T04:45:05.863Z,3.90
2022-12-23T04:50:15.481Z,3.90
2022-12-23T04:55:22.163Z,4.00
2022-12-23T05:00:31.563Z,3.90
2022-12-23T05:05:37.203Z,3.90
2022-12-23T05:10:46.509Z,4.10
2022-12-23T05:15:55.218Z,4.10
2022-12-23T05:21:01.867Z,4.20
2022-12-23T05:26:08.750Z,4.30
2022-12-23T05:31:17.579Z,4.70
2022-12-23T05:36:24.329Z,4.70
2022-12-23T05:41:31.007Z,4.90
2022-12-23T05:46:37.890Z,4.50
2022-12-23T05:51:44.628Z,4.40
2022-12-23T05:56:51.297Z,4.20
2022-12-23T06:01:59.324Z,4.30
2022-12-23T06:07:06.277Z,4.40
2022-12-23T06:12:13.241Z,4.30
2022-12-23T06:17:19.876Z,4.30
2022-12-23T06:22:26.532Z,4.40
2022-12-23T06:27:33.209Z,4.40
2022-12-23T06:32:40.278Z,4.50
2022-12-23T06:37:46.986Z,4.60
2022-12-23T06:42:53.679Z,4.80
2022-12-23T06:48:00.355Z,4.80
2022-12-23T06:53:07.049Z,4.60
2022-12-23T06:58:13.678Z,4.50
2022-12-23T07:03:20.412Z,4.60
2022-12-23T07:08:27.143Z,4.60
2022-12-23T07:13:34.704Z,4.80
2022-12-23T07:18:41.389Z,4.70
2022-12-23T07:23:48.308Z,4.60
2022-12-23T07:28:55.008Z,4.60
2022-12-23T07:34:01.718Z,4.80
2022-12-23T07:39:10.140Z,4.80
2022-12-23T07:44:17.099Z,4.80
2022-12-23T07:49:23.775Z,4.90
2022-12-23T07:54:30.435Z,5.10
2022-12-23T07:59:37.157Z,5.10
2022-12-23T08:04:46.378Z,5.20
2022-12-23T08:09:52.205Z,4.80
2022-12-23T08:14:58.890Z,5.00
2022-12-23T08:20:05.969Z,4.90
2022-12-23T08:25:12.796Z,4.80
2022-12-23T08:30:19.562Z,5.10
2022-12-23T08:35:26.263Z,5.00
2022-12-23T08:40:32.940Z,4.80
2022-12-23T08:45:40.621Z,5.10
2022-12-23T08:50:48.177Z,5.30
2022-12-23T08:55:54.865Z,5.30
2022-12-23T09:01:05.001Z,5.40
2022-12-23T09:06:16.656Z,5.30
2022-12-23T09:11:27.628Z,5.30
2022-12-23T09:16:34.490Z,5.50
2022-12-23T09:21:41.155Z,5.80
2022-12-23T09:26:47.837Z,5.80
2022-12-23T09:31:54.820Z,6.00
2022-12-23T09:37:01.535Z,6.00
2022-12-23T09:42:24.629Z,6.30
2022-12-23T09:47:33.408Z,6.10
2022-12-23T09:53:05.800Z,6.40
2022-12-23T09:58:37.651Z,6.60
2022-12-23T10:04:12.642Z,6.50
2022-12-23T10:09:20.642Z,6.50
2022-12-23T10:14:34.564Z,6.40
2022-12-23T10:19:43.247Z,6.50
2022-12-23T10:24:50.385Z,6.60
2022-12-23T10:29:59.303Z,6.60
2022-12-23T10:35:25.289Z,6.70
2022-12-23T10:40:45.973Z,6.70
2022-12-23T10:46:27.153Z,6.70
2022-12-23T10:51:38.383Z,6.80
2022-12-23T10:56:45.893Z,6.80
2022-12-23T11:02:15.125Z,6.90
2022-12-23T11:07:45.351Z,7.00
2022-12-23T11:12:49.342Z,6.90
2022-12-23T11:18:09.453Z,7.10
2022-12-23T11:23:29.475Z,7.10
2022-12-23T11:28:43.319Z,7.10
2022-12-23T11:34:00.058Z,7.10
2022-12-23T11:39:13.688Z,7.10
2022-12-23T11:44:41.887Z,7.40
2022-12-23T11:50:00.648Z,7.30
2022-12-23T11:55:11.601Z,7.80
2022-12-23T12:00:29.357Z,7.60
2022-12-23T12:05:39.522Z,7.80
2022-12-23T12:10:46.393Z,7.70
2022-12-23T12:16:15.574Z,7.60
2022-12-23T12:21:26.499Z,7.70
2022-12-23T12:26:39.702Z,7.50
2022-12-23T12:31:59.255Z,7.30
2022-12-23T12:37:16.314Z,7.80
2022-12-23T12:42:33.990Z,7.80
2022-12-23T12:48:17.780Z,8.20
2022-12-23T12:53:20.820Z,8.20
2022-12-23T12:58:27.816Z,8.10
2022-12-23T13:03:56.643Z,8.20
2022-12-23T13:09:11.242Z,8.10
2022-12-23T13:14:43.961Z,8.00
2022-12-23T13:20:16.510Z,7.70
2022-12-23T13:25:30.870Z,7.90
2022-12-23T13:30:50.707Z,7.70
2022-12-23T13:36:23.052Z,7.90
2022-12-23T13:41:48.896Z,7.90
2022-12-23T13:47:15.051Z,8.10
2022-12-23T13:52:42.004Z,8.20
2022-12-23T13:58:01.752Z,8.30
2022-12-23T14:03:21.764Z,8.20
2022-12-23T14:08:43.687Z,8.30
2022-12-23T14:14:02.144Z,8.20
2022-12-23T14:19:32.916Z,8.10
2022-12-23T14:25:12.736Z,8.10
2022-12-23T14:30:26.642Z,7.90
2022-12-23T14:35:42.417Z,8.00
2022-12-23T14:40:50.760Z,7.90
2022-12-23T14:46:01.178Z,7.80
2022-12-23T14:51:27.112Z,7.80
2022-12-23T14:56:44.405Z,7.70
2022-12-23T15:01:58.867Z,7.70
2022-12-23T15:07:10.447Z,7.70
2022-12-23T15:12:21.539Z,7.50
2022-12-23T15:17:35.108Z,7.40
2022-12-23T15:22:45.513Z,7.50
2022-12-23T15:28:00.865Z,7.20
2022-12-23T15:33:21.814Z,7.40
2022-12-23T15:38:21.212Z,7.10
2022-12-23T15:43:27.926Z,7.10
2022-12-23T15:48:35.615Z,7.40
2022-12-23T15:53:45.773Z,7.40
2022-12-23T15:58:52.567Z,7.10
2022-12-23T16:04:02.260Z,7.10
2022-12-23T16:09:21.850Z,6.90
2022-12-23T16:14:38.775Z,6.90
2022-12-23T16:19:51.639Z,6.90
2022-12-23T16:25:13.852Z,6.80
2022-12-23T16:30:27.837Z,6.70
2022-12-23T16:35:36.417Z,6.70
2022-12-23T16:40:44.494Z,6.60
2022-12-23T16:45:59.253Z,6.50
2022-12-23T16:51:17.271Z,6.70
2022-12-23T16:56:33.933Z,6.70
2022-12-23T17:01:44.845Z,6.60
2022-12-23T17:06:52.250Z,6.70
2022-12-23T17:11:59.970Z,6.70
2022-12-23T17:17:11.257Z,6.80
2022-12-23T17:22:18.847Z,7.10
2022-12-23T17:27:25.756Z,6.80
2022-12-23T17:32:32.492Z,6.80
2022-12-23T17:37:40.864Z,7.10
2022-12-23T17:42:49.134Z,7.20
2022-12-23T17:47:56.471Z,6.90
2022-12-23T17:53:03.841Z,6.80
2022-12-23T17:58:11.061Z,6.80
2022-12-23T18:03:26.449Z,6.60
2022-12-23T18:08:33.146Z,6.70
2022-12-23T18:13:40.581Z,6.60
2022-12-23T18:18:47.441Z,6.60
2022-12-23T18:23:57.474Z,6.60
2022-12-23T18:29:04.262Z,6.60
2022-12-23T18:34:15.737Z,6.70
2022-12-23T18:39:22.573Z,6.80
2022-12-23T18:44:29.455Z,6.90
2022-12-23T18:49:36.861Z,6.90
2022-12-23T18:54:43.728Z,6.80
2022-12-23T18:59:51.017Z,6.80
2022-12-23T19:04:57.736Z,6.80
2022-12-23T19:10:06.868Z,6.80
2022-12-23T19:15:14.625Z,6.80
2022-12-23T19:20:22.616Z,6.70
2022-12-23T19:25:29.238Z,6.70
2022-12-23T19:30:36.029Z,6.60
2022-12-23T19:35:46.466Z,6.50
2022-12-23T19:41:00.682Z,6.40
2022-12-23T19:46:11.114Z,6.40
2022-12-23T19:51:18.475Z,6.40
2022-12-23T19:56:25.597Z,6.40
2022-12-23T20:01:32.845Z,6.50
2022-12-23T20:06:39.866Z,6.50
2022-12-23T20:11:50.911Z,6.40
2022-12-23T20:16:57.722Z,6.50
2022-12-23T20:22:04.913Z,6.50
2022-12-23T20:27:14.008Z,6.80
2022-12-23T20:32:20.170Z,6.90
2022-12-23T20:37:26.876Z,6.70
2022-12-23T20:42:33.627Z,6.70
2022-12-23T20:47:41.827Z,6.80
2022-12-23T20:52:48.888Z,6.90
2022-12-23T20:57:55.788Z,6.90
2022-12-23T21:03:08.408Z,6.70
2022-12-23T21:08:10.986Z,6.80
2022-12-23T21:13:17.782Z,6.80
2022-12-23T21:18:24.460Z,6.60
2022-12-23T21:23:32.831Z,6.50
2022-12-23T21:28:41.063Z,6.70
2022-12-23T21:33:49.754Z,6.60
2022-12-23T21:38:56.749Z,6.70
2022-12-23T21:44:04.792Z,6.70
2022-12-23T21:49:12.515Z,6.70
2022-12-23T21:54:19.610Z,6.60
2022-12-23T21:59:32.794Z,6.60
2022-12-23T22:04:35.130Z,6.50
2022-12-23T22:09:41.865Z,6.50
2022-12-23T22:14:48.615Z,6.50
2022-12-23T22:19:55.369Z,6.60
2022-12-23T22:25:02.158Z,6.50
2022-12-23T22:30:10.133Z,6.70
2022-12-23T22:35:17.467Z,6.70
2022-12-23T22:40:24.314Z,6.90
2022-12-23T22:45:31.181Z,6.70
2022-12-23T22:50:38.727Z,6.90
2022-12-23T22:55:45.609Z,7.10
2022-12-23T23:00:52.533Z,7.10
2022-12-23T23:06:27.230Z,7.20
2022-12-23T23:11:34.112Z,7.10
2022-12-23T23:16:41.859Z,7.10
2022-12-23T23:21:49.947Z,6.90
2022-12-23T23:26:57.027Z,7.00
2022-12-23T23:32:05.005Z,6.90
2022-12-23T23:37:11.701Z,6.80
2022-12-23T23:42:18.565Z,6.80
2022-12-23T23:47:25.520Z,6.90
2022-12-23T23:52:32.351Z,6.80
2022-12-23T23:57:39.221Z,7.00
